createdAt,value
2022-12-19T00:00:36.877Z,101665.16
2022-12-19T00:03:04.972Z,101592.97
2022-12-19T00:05:40.744Z,101624.13
2022-12-19T00:08:18.053Z,101603.41
2022-12-19T00:11:01.329Z,101676.56
2022-12-19T00:13:40.767Z,101686.28
2022-12-19T00:16:15.323Z,101671.66
2022-12-19T00:18:51.137Z,101693.47
2022-12-19T00:21:32.109Z,101605.19
2022-12-19T00:24:18.424Z,101604.38
2022-12-19T00:26:54.590Z,101684.41
2022-12-19T00:29:29.017Z,101683.72
2022-12-19T00:32:00.422Z,101686.47
2022-12-19T00:34:29.254Z,101654.50
2022-12-19T00:37:05.871Z,101658.13
2022-12-19T00:39:34.641Z,101648.72
2022-12-19T00:42:03.460Z,101667.06
2022-12-19T00:44:33.614Z,101601.09
2022-12-19T00:47:02.057Z,101671.31
2022-12-19T00:49:31.842Z,101667.97
2022-12-19T00:52:05.426Z,101600.44
2022-12-19T00:54:34.822Z,101665.56
2022-12-19T00:57:06.949Z,101671.59
2022-12-19T00:59:38.508Z,101669.06
2022-12-19T01:02:14.338Z,101669.06
2022-12-19T01:04:48.076Z,101659.69
2022-12-19T01:07:17.077Z,101667.53
2022-12-19T01:09:45.426Z,101671.88
2022-12-19T01:12:43.033Z,101588.63
2022-12-19T01:15:17.180Z,101600.91
2022-12-19T01:17:47.924Z,101662.47
2022-12-19T01:20:29.443Z,101660.66
2022-12-19T01:23:00.618Z,101587.84
2022-12-19T01:25:30.579Z,101665.97
2022-12-19T01:28:07.380Z,101650.56
2022-12-19T01:30:40.890Z,101595.13
2022-12-19T01:33:13.287Z,101656.66
2022-12-19T01:35:43.091Z,101595.91
2022-12-19T01:38:21.377Z,101660.94
2022-12-19T01:40:56.963Z,101594.22
2022-12-19T01:43:29.165Z,101657.66
2022-12-19T01:46:03.978Z,101669.72
2022-12-19T01:48:41.454Z,101617.75
2022-12-19T01:51:30.005Z,101579.59
2022-12-19T01:54:06.845Z,101648.91
2022-12-19T01:56:46.244Z,101583.84
2022-12-19T01:59:21.303Z,101652.38
2022-12-19T02:01:57.273Z,101663.63
2022-12-19T02:04:32.075Z,101651.50
2022-12-19T02:07:11.673Z,101653.25
2022-12-19T02:09:47.557Z,101576.91
2022-12-19T02:12:26.929Z,101645.44
2022-12-19T02:15:00.116Z,101582.97
2022-12-19T02:17:57.798Z,101644.56
2022-12-19T02:20:57.241Z,101636.75
2022-12-19T02:23:47.940Z,101638.53
2022-12-19T02:26:44.880Z,101614.25
2022-12-19T02:29:53.848Z,101651.47
2022-12-19T02:32:31.611Z,101641.91
2022-12-19T02:35:34.659Z,101639.28
2022-12-19T02:38:17.171Z,101630.53
2022-12-19T02:40:56.685Z,101623.66
2022-12-19T02:43:33.086Z,101628.81
2022-12-19T02:46:04.277Z,101645.13
2022-12-19T02:48:36.583Z,101584.53
2022-12-19T02:51:06.629Z,101601.88
2022-12-19T02:53:38.193Z,101581.94
2022-12-19T02:56:25.507Z,101625.13
2022-12-19T02:59:38.747Z,101622.25
2022-12-19T03:02:20.728Z,101620.31
2022-12-19T03:05:19.442Z,101599.44
2022-12-19T03:08:00.233Z,101620.59
2022-12-19T03:10:59.109Z,101593.56
2022-12-19T03:13:42.878Z,101616.78
2022-12-19T03:16:12.714Z,101615.69
2022-12-19T03:18:42.072Z,101605.28
2022-12-19T03:21:31.987Z,101603.34
2022-12-19T03:24:00.741Z,101629.03
2022-12-19T03:26:37.979Z,101627.78
2022-12-19T03:29:19.823Z,101631.03
2022-12-19T03:31:48.952Z,101624.72
2022-12-19T03:34:36.810Z,101640.28
2022-12-19T03:37:09.567Z,101632.66
2022-12-19T03:39:40.314Z,101584.03
2022-12-19T03:42:30.966Z,101627.25
2022-12-19T03:45:03.501Z,101631.75
2022-12-19T03:48:02.048Z,101615.25
2022-12-19T03:50:44.295Z,101627.34
2022-12-19T03:53:42.450Z,101614.84
2022-12-19T03:56:30.526Z,101619.03
2022-12-19T03:59:09.053Z,101612.25
2022-12-19T04:01:38.892Z,101596.75
2022-12-19T04:04:07.960Z,101605.34
2022-12-19T04:06:37.450Z,101600.06
2022-12-19T04:09:05.982Z,101599.00
2022-12-19T04:11:47.016Z,101599.56
2022-12-19T04:14:39.003Z,101489.97
2022-12-19T04:17:39.710Z,101613.84
2022-12-19T04:20:21.225Z,101608.44
2022-12-19T04:23:07.026Z,101606.84
2022-12-19T04:25:41.965Z,101516.59
2022-12-19T04:28:43.323Z,101520.75
2022-12-19T04:31:15.554Z,101480.84
2022-12-19T04:33:43.822Z,101595.34
2022-12-19T04:36:12.693Z,101524.13
2022-12-19T04:38:40.729Z,101511.09
2022-12-19T04:41:09.366Z,101572.81
2022-12-19T04:43:37.393Z,101574.63
2022-12-19T04:46:05.492Z,101549.34
2022-12-19T04:48:38.635Z,101570.72
2022-12-19T04:51:07.089Z,101513.09
2022-12-19T04:53:35.650Z,101495.19
2022-12-19T04:56:07.539Z,101572.97
2022-12-19T04:58:35.411Z,101596.53
2022-12-19T05:01:09.631Z,101584.91
2022-12-19T05:03:37.667Z,101593.69
2022-12-19T05:06:13.052Z,101586.31
2022-12-19T05:08:43.215Z,101588.16
2022-12-19T05:11:19.132Z,101601.13
2022-12-19T05:13:50.123Z,101578.09
2022-12-19T05:16:18.992Z,101511.22
2022-12-19T05:18:47.039Z,101571.13
2022-12-19T05:21:14.963Z,101572.00
2022-12-19T05:23:43.105Z,101567.72
2022-12-19T05:26:12.179Z,101559.91
2022-12-19T05:28:40.302Z,101565.28
2022-12-19T05:31:16.029Z,101491.41
2022-12-19T05:33:44.849Z,101540.88
2022-12-19T05:36:15.886Z,101574.59
2022-12-19T05:38:44.248Z,101568.47
2022-12-19T05:41:18.451Z,101570.88
2022-12-19T05:43:53.552Z,101557.91
2022-12-19T05:46:22.923Z,101552.50
2022-12-19T05:48:51.638Z,101534.09
2022-12-19T05:51:20.112Z,101547.69
2022-12-19T05:53:48.351Z,101484.19
2022-12-19T05:56:20.319Z,101542.50
2022-12-19T05:58:50.022Z,101550.34
2022-12-19T06:01:22.848Z,101528.41
2022-12-19T06:03:52.607Z,101556.13
2022-12-19T06:06:23.935Z,101465.78
2022-12-19T06:08:56.544Z,101456.34
2022-12-19T06:11:25.312Z,101473.69
2022-12-19T06:13:53.767Z,101545.84
2022-12-19T06:16:23.436Z,101539.31
2022-12-19T06:18:52.141Z,101534.19
2022-12-19T06:21:22.441Z,101547.94
2022-12-19T06:23:51.098Z,101540.28
2022-12-19T06:26:21.177Z,101556.59
2022-12-19T06:28:51.810Z,101487.59
2022-12-19T06:31:22.625Z,101458.16
2022-12-19T06:33:51.655Z,101545.84
2022-12-19T06:36:25.132Z,101551.94
2022-12-19T06:38:58.011Z,101466.09
2022-12-19T06:41:45.739Z,101576.03
2022-12-19T06:44:16.663Z,101568.03
2022-12-19T06:46:45.021Z,101554.09
2022-12-19T06:49:13.211Z,101561.59
2022-12-19T06:51:41.777Z,101552.09
2022-12-19T06:54:14.269Z,101562.75
2022-12-19T06:56:43.956Z,101245.69
2022-12-19T06:59:15.253Z,101553.78
2022-12-19T07:02:09.487Z,101541.47
2022-12-19T07:04:47.478Z,101565.75
2022-12-19T07:07:15.479Z,101563.53
2022-12-19T07:09:43.446Z,101462.75
2022-12-19T07:12:11.556Z,101542.56
2022-12-19T07:16:48.933Z,101487.34
2022-12-19T07:19:17.513Z,101539.88
2022-12-19T07:21:45.803Z,101540.97
2022-12-19T07:24:15.349Z,101550.84
2022-12-19T07:26:45.332Z,101480.69
2022-12-19T07:29:14.424Z,101548.69
2022-12-19T07:31:42.881Z,101550.09
2022-12-19T07:34:12.176Z,101546.63
2022-12-19T07:36:40.184Z,101531.66
2022-12-19T07:39:08.637Z,101530.22
2022-12-19T07:41:38.468Z,101528.47
2022-12-19T07:44:08.085Z,101470.38
2022-12-19T07:46:36.241Z,101526.13
2022-12-19T07:49:04.244Z,101546.25
2022-12-19T07:51:32.420Z,101530.53
2022-12-19T07:54:01.405Z,101516.34
2022-12-19T07:56:30.255Z,101508.72
2022-12-19T07:58:58.906Z,101478.50
2022-12-19T08:01:28.249Z,101507.28
2022-12-19T08:04:15.486Z,101506.63
2022-12-19T08:21:31.498Z,101478.81
2022-12-19T08:24:58.027Z,101426.09
2022-12-19T08:31:58.528Z,101352.66
2022-12-19T08:37:55.955Z,101394.97
2022-12-19T08:40:24.864Z,101460.66
2022-12-19T08:42:54.600Z,101444.19
2022-12-19T08:45:23.749Z,101387.16
2022-12-19T08:48:17.359Z,101376.81
2022-12-19T08:51:06.286Z,101388.88
2022-12-19T08:53:38.769Z,101450.19
2022-12-19T08:56:14.573Z,101445.81
2022-12-19T08:58:43.619Z,101390.44
2022-12-19T09:01:19.019Z,101444.00
2022-12-19T09:04:14.184Z,101410.19
2022-12-19T09:06:37.065Z,101461.03
2022-12-19T09:09:06.479Z,101479.31
2022-12-19T09:11:36.203Z,101410.38
2022-12-19T09:14:15.724Z,101481.22
2022-12-19T09:16:49.898Z,101400.09
2022-12-19T09:19:18.381Z,101397.50
2022-12-19T09:21:46.626Z,101451.84
2022-12-19T09:24:14.738Z,101433.69
2022-12-19T09:26:44.354Z,101409.59
2022-12-19T09:29:20.654Z,101422.56
2022-12-19T09:31:56.510Z,101410.50
2022-12-19T09:34:37.949Z,101405.25
2022-12-19T09:37:08.942Z,101400.88
2022-12-19T09:39:39.888Z,101396.56
2022-12-19T09:42:47.754Z,101376.72
2022-12-19T09:45:31.980Z,101323.13
2022-12-19T09:48:02.340Z,101371.50
2022-12-19T09:51:10.057Z,101375.88
2022-12-19T09:54:28.178Z,101371.56
2022-12-19T09:57:05.184Z,101312.84
2022-12-19T09:59:49.670Z,101342.09
2022-12-19T10:02:33.423Z,101360.91
2022-12-19T10:05:38.822Z,101353.94
2022-12-19T10:08:10.359Z,101226.94
2022-12-19T10:12:39.324Z,101326.19
2022-12-19T10:14:27.132Z,101065.94
2022-12-19T10:17:27.586Z,101337.56
2022-12-19T10:20:04.492Z,101340.72
2022-12-19T10:23:24.466Z,101313.28
2022-12-19T10:26:12.697Z,101311.66
2022-12-19T10:29:18.358Z,101304.56
2022-12-19T10:32:05.100Z,101283.56
2022-12-19T10:34:44.166Z,101267.81
2022-12-19T10:38:07.109Z,101269.38
2022-12-19T10:40:54.160Z,101247.72
2022-12-19T10:43:35.666Z,101229.75
2022-12-19T10:46:31.687Z,101213.59
2022-12-19T10:48:59.969Z,101223.16
2022-12-19T10:51:31.993Z,101228.28
2022-12-19T10:54:01.616Z,101212.66
2022-12-19T10:56:37.553Z,101146.34
2022-12-19T10:59:21.982Z,101189.47
2022-12-19T11:01:54.751Z,101199.75
2022-12-19T11:04:36.335Z,101160.16
2022-12-19T11:07:16.153Z,101151.47
2022-12-19T11:09:52.413Z,101171.00
2022-12-19T11:18:13.289Z,101212.84
2022-12-19T11:19:47.122Z,101138.38
2022-12-19T11:29:15.115Z,101209.47
2022-12-19T11:29:37.563Z,101176.50
2022-12-19T11:30:36.555Z,101142.94
2022-12-19T11:30:41.838Z,101112.03
2022-12-19T11:31:50.906Z,101093.22
2022-12-19T11:33:23.978Z,101131.88
2022-12-19T11:36:01.230Z,101147.34
2022-12-19T11:38:54.541Z,101081.81
2022-12-19T11:41:35.280Z,101120.69
2022-12-19T11:44:17.369Z,101072.50
2022-12-19T11:47:26.850Z,101114.81
2022-12-19T11:50:11.434Z,101119.00
2022-12-19T11:53:20.934Z,101115.22
2022-12-19T11:56:00.913Z,101107.13
2022-12-19T11:58:30.848Z,101105.00
2022-12-19T12:01:01.800Z,101106.47
2022-12-19T12:03:54.756Z,101094.31
2022-12-19T12:06:45.574Z,101085.38
2022-12-19T12:15:04.363Z,101072.03
2022-12-19T12:16:06.528Z,101087.16
2022-12-19T12:30:06.492Z,101089.66
2022-12-19T12:31:07.207Z,101106.84
2022-12-19T12:31:28.140Z,101075.44
2022-12-19T12:31:41.208Z,101080.22
2022-12-19T12:31:50.064Z,101078.47
2022-12-19T12:35:29.218Z,101075.69
2022-12-19T12:37:54.029Z,101062.78
2022-12-19T12:39:11.858Z,101066.38
2022-12-19T12:42:15.906Z,101071.63
2022-12-19T12:44:46.698Z,100948.66
2022-12-19T12:47:30.346Z,101058.81
2022-12-19T12:50:07.697Z,101036.41
2022-12-19T12:52:42.031Z,101053.50
2022-12-19T12:55:19.198Z,101058.41
2022-12-19T12:57:47.737Z,101043.25
2022-12-19T13:00:34.965Z,101049.94
2022-12-19T13:03:18.169Z,101039.31
2022-12-19T13:05:47.187Z,101023.97
2022-12-19T13:08:32.093Z,101037.88
2022-12-19T13:11:12.327Z,101049.25
2022-12-19T13:13:58.197Z,101035.22
2022-12-19T13:19:33.285Z,101020.03
2022-12-19T13:22:36.233Z,101008.25
2022-12-19T13:25:29.455Z,101012.00
2022-12-19T13:28:02.277Z,101018.09
2022-12-19T13:30:36.205Z,101006.94
2022-12-19T13:33:20.824Z,101007.22
2022-12-19T13:39:37.057Z,100999.50
2022-12-19T13:39:56.640Z,100945.59
2022-12-19T13:42:04.270Z,100968.31
2022-12-19T13:44:40.129Z,100962.56
2022-12-19T13:47:11.664Z,100931.00
2022-12-19T13:49:40.131Z,100907.06
2022-12-19T13:52:12.401Z,100913.25
2022-12-19T13:54:52.066Z,100976.22
2022-12-19T13:57:29.911Z,100966.78
2022-12-19T14:00:08.423Z,100992.66
2022-12-19T14:02:47.051Z,100978.94
2022-12-19T14:06:14.580Z,100985.88
2022-12-19T14:08:25.247Z,100933.38
2022-12-19T14:11:40.874Z,100949.75
2022-12-19T14:14:28.080Z,100996.25
2022-12-19T14:17:19.981Z,100998.88
2022-12-19T14:19:55.289Z,101006.59
2022-12-19T14:22:43.251Z,101011.75
2022-12-19T14:28:15.412Z,101027.28
2022-12-19T14:28:26.550Z,100994.53
2022-12-19T14:31:03.554Z,101030.75
2022-12-19T14:34:04.650Z,101036.78
2022-12-19T14:36:38.320Z,100917.00
2022-12-19T14:39:25.613Z,100973.00
2022-12-19T14:43:56.858Z,100975.56
2022-12-19T14:53:17.580Z,100980.78
2022-12-19T14:53:34.064Z,100948.84
2022-12-19T14:54:30.698Z,100939.41
2022-12-19T14:57:29.019Z,100988.47
2022-12-19T15:01:07.490Z,100988.47
2022-12-19T15:03:39.785Z,100992.75
2022-12-19T15:06:31.561Z,100976.38
2022-12-19T15:10:57.468Z,100772.03
2022-12-19T15:14:47.123Z,100972.88
2022-12-19T15:15:37.601Z,100966.00
2022-12-19T15:18:33.344Z,100962.50
2022-12-19T15:21:05.520Z,100885.75
2022-12-19T15:23:34.089Z,100911.50
2022-12-19T15:26:07.856Z,100892.53
2022-12-19T15:28:46.490Z,100961.41
2022-12-19T15:31:43.450Z,100954.66
2022-12-19T15:34:50.261Z,100964.31
2022-12-19T15:37:16.247Z,100955.75
2022-12-19T15:39:45.648Z,100945.41
2022-12-19T15:42:24.492Z,100953.22
2022-12-19T15:44:56.656Z,100884.28
2022-12-19T15:47:25.287Z,100948.00
2022-12-19T15:49:53.650Z,100879.13
2022-12-19T15:52:23.054Z,100926.47
2022-12-19T15:54:51.559Z,100891.16
2022-12-19T15:57:36.724Z,100861.94
2022-12-19T16:00:12.989Z,100921.28
2022-12-19T16:03:21.171Z,100924.72
2022-12-19T16:05:32.122Z,100915.25
2022-12-19T16:08:00.986Z,100918.66
2022-12-19T16:10:30.170Z,100917.84
2022-12-19T16:12:59.113Z,100917.84
2022-12-19T16:15:31.177Z,100805.09
2022-12-19T16:18:03.116Z,100920.38
2022-12-19T16:20:39.864Z,100901.44
2022-12-19T16:23:09.931Z,100853.22
2022-12-19T16:25:48.168Z,100903.13
2022-12-19T16:28:28.743Z,100901.41
2022-12-19T16:30:59.628Z,100887.66
2022-12-19T16:33:30.534Z,100894.53
2022-12-19T16:36:04.513Z,100842.88
2022-12-19T16:38:35.044Z,100880.75
2022-12-19T16:41:03.772Z,100807.56
2022-12-19T16:43:40.719Z,100878.97
2022-12-19T16:46:20.288Z,100884.16
2022-12-19T16:48:51.833Z,100867.75
2022-12-19T16:51:24.957Z,100884.94
2022-12-19T16:54:00.748Z,100843.56
2022-12-19T16:56:37.140Z,100856.53
2022-12-19T16:59:33.225Z,100846.19
2022-12-19T17:02:03.034Z,100786.78
2022-12-19T17:04:31.847Z,100834.88
2022-12-19T17:07:02.140Z,100832.31
2022-12-19T17:09:31.933Z,100788.44
2022-12-19T17:12:02.210Z,100794.44
2022-12-19T17:14:32.428Z,100821.06
2022-12-19T17:17:01.407Z,100815.03
2022-12-19T17:19:48.945Z,100833.97
2022-12-19T17:22:19.660Z,100802.13
2022-12-19T17:24:49.249Z,100808.16
2022-12-19T17:27:19.458Z,100806.47
2022-12-19T17:29:47.748Z,100807.38
2022-12-19T17:32:24.192Z,100807.34
2022-12-19T17:34:53.043Z,100804.81
2022-12-19T17:37:21.447Z,100810.81
2022-12-19T17:39:49.436Z,100785.00
2022-12-19T17:42:25.090Z,100738.53
2022-12-19T17:44:53.166Z,100784.13
2022-12-19T17:47:21.524Z,100798.72
2022-12-19T17:49:49.807Z,100798.72
2022-12-19T17:52:20.148Z,100794.41
2022-12-19T17:54:48.219Z,100790.91
2022-12-19T17:57:18.050Z,100776.16
2022-12-19T17:59:48.906Z,100770.91
2022-12-19T18:02:24.842Z,100760.59
2022-12-19T18:04:53.872Z,100732.19
2022-12-19T18:07:24.885Z,100702.06
2022-12-19T18:09:53.081Z,100763.81
2022-12-19T18:12:21.431Z,100763.44
2022-12-19T18:14:49.860Z,100763.19
2022-12-19T18:17:26.147Z,100752.81
2022-12-19T18:19:54.323Z,100698.50
2022-12-19T18:22:22.696Z,100719.09
2022-12-19T18:24:51.034Z,100762.81
2022-12-19T18:27:19.882Z,100755.00
2022-12-19T18:29:48.197Z,100721.44
2022-12-19T18:32:20.966Z,100722.91
2022-12-19T18:34:49.313Z,100742.63
2022-12-19T18:37:17.737Z,100734.94
2022-12-19T18:39:45.922Z,100722.81
2022-12-19T18:42:20.907Z,100721.03
2022-12-19T18:44:49.506Z,100714.94
2022-12-19T18:47:22.739Z,100697.59
2022-12-19T18:49:52.730Z,100719.97
2022-12-19T18:52:20.838Z,100709.50
2022-12-19T18:54:48.877Z,100723.25
2022-12-19T18:57:17.080Z,100712.81
2022-12-19T18:59:45.092Z,100745.56
2022-12-19T19:02:34.627Z,100579.81
2022-12-19T19:05:03.144Z,100715.94
2022-12-19T19:07:31.553Z,100714.09
2022-12-19T19:09:59.474Z,100535.66
2022-12-19T19:12:52.237Z,100710.44
2022-12-19T19:15:24.260Z,100708.72
2022-12-19T19:18:06.924Z,100639.09
2022-12-19T19:20:40.427Z,100695.56
2022-12-19T19:23:12.991Z,100704.16
2022-12-19T19:25:41.391Z,100643.06
2022-12-19T19:28:10.957Z,100697.91
2022-12-19T19:30:40.878Z,100693.63
2022-12-19T19:33:28.730Z,100684.19
2022-12-19T19:36:05.998Z,100637.06
2022-12-19T19:38:39.565Z,100686.63
2022-12-19T19:41:07.972Z,100673.59
2022-12-19T19:43:37.086Z,100670.88
2022-12-19T19:46:05.742Z,100671.91
2022-12-19T19:48:34.556Z,100672.75
2022-12-19T19:51:02.873Z,100672.75
2022-12-19T19:53:31.152Z,100674.47
2022-12-19T19:56:01.597Z,100658.09
2022-12-19T19:58:30.346Z,100658.91
2022-12-19T20:00:59.443Z,100605.63
2022-12-19T20:03:27.902Z,100662.31
2022-12-19T20:06:01.378Z,100657.94
2022-12-19T20:08:38.625Z,100644.88
2022-12-19T20:11:09.020Z,100582.25
2022-12-19T20:13:38.986Z,100648.16
2022-12-19T20:16:12.896Z,100640.47
2022-12-19T20:18:43.408Z,100637.91
2022-12-19T20:21:13.935Z,100631.78
2022-12-19T20:23:44.445Z,100577.03
2022-12-19T20:26:15.926Z,100619.59
2022-12-19T20:28:48.850Z,100632.53
2022-12-19T20:31:21.363Z,100631.59
2022-12-19T20:33:53.501Z,100567.25
2022-12-19T20:36:24.420Z,100603.03
2022-12-19T20:38:53.072Z,100614.94
2022-12-19T20:41:22.040Z,100546.31
2022-12-19T20:43:52.770Z,100608.00
2022-12-19T20:46:22.283Z,100573.75
2022-12-19T20:48:52.128Z,100547.94
2022-12-19T20:51:24.477Z,100581.22
2022-12-19T20:53:55.062Z,100531.31
2022-12-19T20:56:23.584Z,100570.66
2022-12-19T20:58:52.112Z,100581.97
2022-12-19T21:01:24.390Z,100518.41
2022-12-19T21:03:53.886Z,100560.00
2022-12-19T21:06:26.433Z,100555.53
2022-12-19T21:08:58.515Z,100539.94
2022-12-19T21:11:27.117Z,100500.59
2022-12-19T21:13:56.262Z,100564.63
2022-12-19T21:16:24.868Z,100546.25
2022-12-19T21:18:53.406Z,100474.19
2022-12-19T21:21:25.827Z,100493.84
2022-12-19T21:23:58.265Z,100501.25
2022-12-19T21:26:27.269Z,100463.34
2022-12-19T21:28:58.201Z,100494.13
2022-12-19T21:31:30.348Z,100518.06
2022-12-19T21:34:02.347Z,100471.81
2022-12-19T21:36:31.964Z,100520.34
2022-12-19T21:39:02.279Z,100529.88
2022-12-19T21:41:31.285Z,100499.84
2022-12-19T21:44:01.116Z,100529.91
2022-12-19T21:46:33.564Z,100457.94
2022-12-19T21:49:03.702Z,100430.56
2022-12-19T21:51:32.831Z,100515.34
2022-12-19T21:54:02.941Z,100494.63
2022-12-19T21:56:32.210Z,100493.69
2022-12-19T21:59:13.078Z,100508.41
2022-12-19T22:01:42.808Z,100442.28
2022-12-19T22:04:17.809Z,100495.16
2022-12-19T22:06:46.888Z,100501.16
2022-12-19T22:09:23.919Z,100487.31
2022-12-19T22:11:52.339Z,100488.81
2022-12-19T22:14:20.816Z,100464.00
2022-12-19T22:16:49.363Z,100496.38
2022-12-19T22:19:20.340Z,100410.75
2022-12-19T22:21:49.387Z,100436.28
2022-12-19T22:24:18.021Z,100464.53
2022-12-19T22:26:46.260Z,100429.44
2022-12-19T22:29:16.875Z,100428.56
2022-12-19T22:31:46.243Z,100433.69
2022-12-19T22:34:18.317Z,100421.66
2022-12-19T22:36:48.052Z,100473.66
2022-12-19T22:39:19.793Z,100483.88
2022-12-19T22:41:48.287Z,100406.53
2022-12-19T22:44:23.747Z,100470.56
2022-12-19T22:46:53.313Z,100454.91
2022-12-19T22:49:21.481Z,100460.00
2022-12-19T22:51:50.347Z,100393.94
2022-12-19T22:54:18.460Z,100404.16
2022-12-19T22:56:49.365Z,100419.34
2022-12-19T22:59:17.787Z,100455.75
2022-12-19T23:01:46.060Z,100449.63
2022-12-19T23:04:16.255Z,100447.81
2022-12-19T23:06:45.155Z,100409.81
2022-12-19T23:09:17.324Z,100448.19
2022-12-19T23:11:49.331Z,100438.56
2022-12-19T23:14:19.971Z,100426.41
2022-12-19T23:16:48.871Z,100440.81
2022-12-19T23:19:17.534Z,100432.88
2022-12-19T23:21:45.970Z,100414.66
2022-12-19T23:24:14.239Z,100433.41
2022-12-19T23:26:42.705Z,100425.38
2022-12-19T23:29:14.756Z,100408.22
2022-12-19T23:31:46.456Z,100411.34
2022-12-19T23:34:16.620Z,100401.19
2022-12-19T23:37:10.071Z,100412.06
2022-12-19T23:39:33.374Z,100325.91
2022-12-19T23:42:01.369Z,100402.56
2022-12-19T23:44:29.453Z,100388.56
2022-12-19T23:47:03.038Z,100380.84
2022-12-19T23:49:33.766Z,100397.16
2022-12-19T23:52:02.096Z,100219.31
2022-12-19T23:54:30.004Z,100382.25
2022-12-19T23:56:58.224Z,100374.38
2022-12-19T23:59:26.522Z,100376.81
